Time;durP1;ratioP1;P1;durP2;ratioP2;P2;SDS_P1;SDS_P2;PMS_P1;PMS_P2;Temp;Humidity;BMP_temperature;BMP_pressure;BME280_temperature;BME280_humidity;BME280_pressure;Samples;Min_cycle;Max_cycle;Signal;HPM_P1;HPM_P2
2020/12/25 00:00:52;;;;;;;3.83;2.90;;;;;;;4.46;79.61;99506.79;1733251;81;25939;-78
2020/12/25 00:03:20;;;;;;;5.75;2.80;;;;;;;4.46;79.67;99509.94;1749915;81;27570;-78
2020/12/25 00:05:47;;;;;;;4.33;3.33;;;;;;;4.40;79.96;99512.80;1707449;81;25914;-78
2020/12/25 00:08:15;;;;;;;5.17;2.85;;;;;;;4.40;80.15;99523.89;1661492;81;26449;-78
2020/12/25 00:10:42;;;;;;;4.22;2.90;;;;;;;4.37;80.42;99524.23;1756498;80;26696;-78
2020/12/25 00:13:10;;;;;;;5.67;2.77;;;;;;;4.34;80.52;99518.77;1751743;81;25893;-79
2020/12/25 00:15:37;;;;;;;3.22;2.72;;;;;;;4.31;80.60;99512.50;1697571;81;27633;-79
2020/12/25 00:18:04;;;;;;;4.83;3.02;;;;;;;4.30;80.71;99512.16;1707122;81;25807;-78
2020/12/25 00:20:32;;;;;;;4.78;3.12;;;;;;;4.31;80.88;99509.85;1732978;81;25841;-78
2020/12/25 00:22:59;;;;;;;2.80;2.42;;;;;;;4.32;81.04;99519.44;1751634;81;25782;-78
2020/12/25 00:25:27;;;;;;;4.75;3.83;;;;;;;4.30;81.06;99532.04;1706901;81;25778;-78
2020/12/25 00:27:54;;;;;;;4.80;3.70;;;;;;;4.31;81.25;99531.05;1732164;81;28480;-79
2020/12/25 00:30:21;;;;;;;4.87;3.55;;;;;;;4.37;81.38;99540.13;1732391;81;25951;-79
2020/12/25 00:32:49;;;;;;;5.03;3.90;;;;;;;4.36;81.36;99544.59;1751547;81;25848;-78
2020/12/25 00:35:16;;;;;;;5.30;3.55;;;;;;;4.39;81.46;99548.24;1708145;81;25726;-78
2020/12/25 00:37:43;;;;;;;5.55;3.30;;;;;;;4.43;81.59;99554.02;1702427;81;25734;-78
2020/12/25 00:40:11;;;;;;;6.95;3.90;;;;;;;4.43;81.62;99561.48;1751030;80;27293;-79
2020/12/25 00:42:38;;;;;;;5.50;3.80;;;;;;;4.45;81.58;99570.09;1770431;80;26503;-78
2020/12/25 00:45:05;;;;;;;5.60;3.25;;;;;;;4.49;81.61;99570.06;1725684;81;25925;-79
2020/12/25 00:47:33;;;;;;;4.33;3.10;;;;;;;4.49;81.62;99571.39;1757923;80;25648;-78
2020/12/25 00:50:00;;;;;;;4.87;2.95;;;;;;;4.49;81.62;99580.67;1730142;80;25426;-79
2020/12/25 00:52:28;;;;;;;4.37;3.35;;;;;;;4.50;81.65;99582.34;1780426;80;27537;-79
2020/12/25 00:54:55;;;;;;;4.67;2.72;;;;;;;4.49;81.57;99578.54;1723700;80;26466;-79
2020/12/25 00:57:23;;;;;;;4.15;3.02;;;;;;;4.49;81.71;99575.89;1783306;80;25846;-79
2020/12/25 01:00:05;;;;;;;5.72;3.35;;;;;;;4.55;81.58;99583.98;1794203;79;25744;-78
2020/12/25 01:02:33;;;;;;;4.33;3.42;;;;;;;4.47;81.55;99584.00;1739539;80;25853;-79
2020/12/25 01:05:00;;;;;;;3.85;2.58;;;;;;;4.46;81.71;99591.64;1755104;80;27092;-78
2020/12/25 01:07:28;;;;;;;5.45;3.10;;;;;;;4.45;81.72;99595.77;1706195;80;26550;-79
2020/12/25 01:09:55;;;;;;;4.28;3.08;;;;;;;4.46;81.79;99602.25;1727138;80;26094;-78
2020/12/25 01:12:22;;;;;;;10.95;3.42;;;;;;;4.47;81.85;99606.53;1736524;80;25867;-78
2020/12/25 01:14:50;;;;;;;3.08;2.45;;;;;;;4.45;81.72;99605.88;1763093;80;26240;-79
2020/12/25 01:17:17;;;;;;;4.33;3.10;;;;;;;4.46;81.75;99609.36;1704404;80;27545;-79
2020/12/25 01:19:45;;;;;;;4.60;3.30;;;;;;;4.46;81.82;99603.57;1734924;80;25957;-78
2020/12/25 01:22:12;;;;;;;2.80;2.27;;;;;;;4.47;81.72;99601.75;1737654;81;25886;-78
2020/12/25 01:24:39;;;;;;;3.85;2.60;;;;;;;4.48;81.69;99610.85;1759989;80;25413;-78
2020/12/25 01:27:07;;;;;;;3.10;2.22;;;;;;;4.48;81.78;99616.64;1705339;81;26091;-79
2020/12/25 01:29:34;;;;;;;2.70;2.35;;;;;;;4.52;81.66;99621.44;1730223;80;27625;-78
2020/12/25 01:32:01;;;;;;;4.22;3.25;;;;;;;4.48;81.48;99624.60;1736778;81;25835;-79
2020/12/25 01:34:29;;;;;;;3.33;2.40;;;;;;;4.45;81.62;99624.93;1753770;81;25700;-78
2020/12/25 01:36:56;;;;;;;2.77;2.30;;;;;;;4.45;81.54;99633.72;1731648;80;26484;-79
2020/12/25 01:39:24;;;;;;;2.47;2.12;;;;;;;4.43;81.63;99641.02;1738734;80;25827;-79
2020/12/25 01:41:51;;;;;;;3.05;2.02;;;;;;;4.41;81.58;99643.51;1737535;80;27081;-78
2020/12/25 01:44:19;;;;;;;4.83;2.30;;;;;;;4.42;81.67;99647.34;1761761;80;25779;-78
2020/12/25 01:46:46;;;;;;;3.02;2.40;;;;;;;4.39;81.69;99641.04;1726050;80;25919;-78
2020/12/25 01:49:14;;;;;;;3.60;2.15;;;;;;;4.40;81.73;99631.27;1712012;80;25873;-79
2020/12/25 01:51:41;;;;;;;5.28;2.58;;;;;;;4.43;81.67;99643.67;1751470;80;25831;-78
2020/12/25 01:54:09;;;;;;;2.42;2.22;;;;;;;4.45;81.74;99646.14;1762134;80;27519;-79
2020/12/25 01:56:39;;;;;;;3.80;2.33;;;;;;;4.47;81.65;99648.16;1731877;81;25714;-78
2020/12/25 01:59:06;;;;;;;2.98;2.40;;;;;;;4.46;81.51;99644.67;1740264;80;26440;-78
2020/12/25 02:01:34;;;;;;;4.65;2.55;;;;;;;4.47;81.43;99650.80;1768988;80;25635;-78
2020/12/25 02:04:01;;;;;;;4.78;3.08;;;;;;;4.44;81.35;99662.58;1763406;80;25574;-78
2020/12/25 02:06:40;;;;;;;3.10;2.45;;;;;;;4.45;81.35;99666.86;1729934;80;28471;-79
2020/12/25 02:09:07;;;;;;;3.40;2.65;;;;;;;4.44;81.36;99671.02;1745177;80;25942;-78
2020/12/25 02:11:37;;;;;;;4.40;2.12;;;;;;;4.43;81.37;99668.02;1753326;80;25740;-78
2020/12/25 02:14:05;;;;;;;5.12;2.27;;;;;;;4.43;81.45;99669.35;1761737;80;26154;-78
2020/12/25 02:16:32;;;;;;;6.97;3.22;;;;;;;4.45;81.40;99679.29;1752009;80;25792;-78
2020/12/25 02:18:59;;;;;;;4.80;2.52;;;;;;;4.44;81.36;99685.11;1741666;80;27537;-79
2020/12/25 02:21:27;;;;;;;3.92;2.10;;;;;;;4.45;81.50;99692.05;1771750;80;25807;-78
2020/12/25 02:23:54;;;;;;;2.35;1.98;;;;;;;4.46;81.50;99698.19;1762061;80;26439;-79
2020/12/25 02:26:21;;;;;;;3.55;1.98;;;;;;;4.44;81.48;99698.86;1733150;80;25741;-78
2020/12/25 02:28:49;;;;;;;3.70;1.85;;;;;;;4.45;81.47;99703.16;1744764;81;25850;-78
2020/12/25 02:31:16;;;;;;;3.12;2.00;;;;;;;4.43;81.50;99704.66;1734040;80;28245;-78
2020/12/25 02:33:44;;;;;;;3.47;2.33;;;;;;;4.47;81.61;99701.99;1758484;80;25835;-79
2020/12/25 02:36:11;;;;;;;2.30;1.85;;;;;;;4.53;81.66;99707.13;1765997;80;25942;-78
2020/12/25 02:38:39;;;;;;;2.67;1.90;;;;;;;4.55;81.53;99711.77;1678849;83;26432;-78
2020/12/25 02:41:06;;;;;;;2.92;2.05;;;;;;;4.54;81.50;99712.75;1668642;84;25786;-78
2020/12/25 02:43:34;;;;;;;3.65;2.45;;;;;;;4.54;81.46;99724.69;1666482;84;28538;-79
2020/12/25 02:46:01;;;;;;;3.47;2.20;;;;;;;4.52;81.59;99725.35;1650509;83;25899;-79
2020/12/25 02:48:28;;;;;;;3.05;2.17;;;;;;;4.52;81.62;99730.16;1686581;83;25864;-79
2020/12/25 02:50:56;;;;;;;2.55;1.90;;;;;;;4.52;81.76;99731.48;1644712;83;25898;-79
2020/12/25 02:53:23;;;;;;;4.72;1.98;;;;;;;4.52;81.82;99729.33;1665579;83;25405;-79
2020/12/25 02:55:50;;;;;;;3.70;2.00;;;;;;;4.49;81.94;99737.64;1667104;84;27111;-78
2020/12/25 02:58:18;;;;;;;3.20;2.08;;;;;;;4.45;82.01;99734.97;1708858;83;27121;-79
2020/12/25 03:00:45;;;;;;;3.17;2.42;;;;;;;4.48;82.16;99735.97;1647203;82;26434;-78
2020/12/25 03:03:12;;;;;;;5.22;2.90;;;;;;;4.49;82.38;99734.47;1684079;82;25641;-79
2020/12/25 03:05:40;;;;;;;6.55;3.33;;;;;;;4.48;82.47;99747.41;1691068;82;25853;-78
2020/12/25 03:08:07;;;;;;;3.60;2.70;;;;;;;4.52;82.72;99746.56;1710824;82;28697;-78
2020/12/25 03:10:35;;;;;;;3.47;2.92;;;;;;;4.50;82.68;99749.89;1649174;82;25838;-79
2020/12/25 03:13:02;;;;;;;5.15;3.15;;;;;;;4.51;82.74;99752.89;1682348;82;25977;-79
2020/12/25 03:15:29;;;;;;;4.70;3.33;;;;;;;4.52;82.89;99755.36;1707124;83;25878;-79
2020/12/25 03:17:57;;;;;;;5.83;4.03;;;;;;;4.54;82.82;99765.78;1713592;82;25732;-79
2020/12/25 03:20:24;;;;;;;7.60;4.37;;;;;;;4.53;82.81;99768.93;1666749;82;29049;-78
2020/12/25 03:22:51;;;;;;;6.67;4.40;;;;;;;4.54;82.89;99769.77;1685181;82;25847;-79
2020/12/25 03:25:19;;;;;;;5.00;4.12;;;;;;;4.56;82.97;99773.91;1683088;83;26225;-78
2020/12/25 03:27:46;;;;;;;6.12;4.33;;;;;;;4.56;83.07;99779.22;1709319;82;26092;-78
2020/12/25 03:30:13;;;;;;;4.58;4.10;;;;;;;4.54;83.10;99777.23;1647086;82;25938;-78
2020/12/25 03:32:41;;;;;;;6.45;3.62;;;;;;;4.53;83.14;99775.56;1683513;82;27443;-78
2020/12/25 03:35:08;;;;;;;7.42;4.72;;;;;;;4.50;83.28;99775.91;1655807;84;25972;-78
2020/12/25 03:37:35;;;;;;;5.97;4.37;;;;;;;4.49;83.29;99780.87;1711036;82;26325;-78
2020/12/25 03:40:04;;;;;;;8.35;4.25;;;;;;;4.51;83.34;99781.53;1672487;82;26519;-78
2020/12/25 03:42:32;;;;;;;6.10;4.60;;;;;;;4.52;83.41;99783.70;1690589;82;25835;-79
2020/12/25 03:44:59;;;;;;;4.83;3.33;;;;;;;4.48;83.34;99794.31;1683015;82;28378;-78
2020/12/25 03:47:27;;;;;;;5.08;3.98;;;;;;;4.49;83.46;99798.11;1705742;82;26430;-79
2020/12/25 03:49:55;;;;;;;4.65;3.25;;;;;;;4.48;83.37;99804.92;1646912;84;25942;-79
2020/12/25 03:52:23;;;;;;;4.30;3.42;;;;;;;4.50;83.48;99805.09;1686667;82;25855;-78
2020/12/25 03:54:51;;;;;;;5.95;3.45;;;;;;;4.49;83.33;99804.73;1682119;83;26483;-78
2020/12/25 03:57:18;;;;;;;3.83;3.35;;;;;;;4.47;83.34;99805.41;1710400;82;27542;-79
2020/12/25 03:59:45;;;;;;;5.12;3.72;;;;;;;4.48;83.40;99812.38;1652489;82;26191;-79
2020/12/25 04:02:13;;;;;;;5.58;3.60;;;;;;;4.48;83.40;99819.02;1689090;82;25842;-78
2020/12/25 04:04:41;;;;;;;6.37;4.22;;;;;;;4.45;83.31;99821.98;1677085;84;26001;-78
2020/12/25 04:07:08;;;;;;;6.28;3.20;;;;;;;4.45;83.44;99818.00;1697746;84;26009;-78
2020/12/25 04:09:35;;;;;;;5.17;3.30;;;;;;;4.47;83.51;99823.16;1652490;82;28491;-78
2020/12/25 04:12:03;;;;;;;7.08;4.05;;;;;;;4.45;83.51;99815.84;1682314;84;25898;-79
2020/12/25 04:14:30;;;;;;;5.60;3.42;;;;;;;4.44;83.61;99820.34;1697777;83;26346;-78
2020/12/25 04:16:57;;;;;;;4.15;3.30;;;;;;;4.44;83.57;99824.32;1695556;82;25802;-80
2020/12/25 04:19:25;;;;;;;4.25;3.25;;;;;;;4.43;83.62;99825.30;1670874;83;25737;-78
2020/12/25 04:21:52;;;;;;;3.55;3.10;;;;;;;4.42;83.67;99827.64;1688568;84;27515;-79
2020/12/25 04:24:19;;;;;;;3.80;3.17;;;;;;;4.41;83.73;99825.97;1681225;84;26513;-78
2020/12/25 04:26:47;;;;;;;3.17;2.67;;;;;;;4.38;83.83;99824.98;1697561;83;26329;-79
2020/12/25 04:29:15;;;;;;;3.30;2.72;;;;;;;4.35;83.95;99831.94;1651598;82;26464;-80
2020/12/25 04:31:42;;;;;;;5.85;2.83;;;;;;;4.33;83.99;99829.95;1669640;82;25813;-79
2020/12/25 04:34:10;;;;;;;4.80;2.92;;;;;;;4.33;84.09;99828.63;1693279;82;27556;-78
2020/12/25 04:36:37;;;;;;;3.58;2.45;;;;;;;4.34;84.07;99828.13;1660216;84;25985;-78
2020/12/25 04:39:06;;;;;;;4.40;3.02;;;;;;;4.35;84.19;99833.75;1697696;84;25761;-78
2020/12/25 04:41:35;;;;;;;4.15;2.67;;;;;;;4.33;84.14;99845.86;1680852;82;26410;-79
2020/12/25 04:44:06;;;;;;;4.10;2.45;;;;;;;4.29;84.23;99845.86;1693132;82;26194;-79
2020/12/25 04:46:34;;;;;;;4.75;2.45;;;;;;;4.30;84.34;99841.39;1717919;82;27331;-79
2020/12/25 04:49:01;;;;;;;3.45;2.55;;;;;;;4.31;84.40;99847.84;1700009;82;26054;-78
2020/12/25 04:51:29;;;;;;;3.17;2.47;;;;;;;4.30;84.34;99847.50;1679439;83;25900;-79
2020/12/25 04:53:56;;;;;;;6.40;2.47;;;;;;;4.30;84.33;99849.34;1686703;84;25930;-78
2020/12/25 04:56:24;;;;;;;3.72;2.27;;;;;;;4.27;84.38;99849.66;1697239;83;26212;-79
2020/12/25 04:58:53;;;;;;;3.00;2.17;;;;;;;4.24;84.34;99854.79;1697773;82;27492;-79
2020/12/25 05:01:21;;;;;;;3.35;2.60;;;;;;;4.21;84.42;99844.53;1656339;82;25903;-79
2020/12/25 05:03:48;;;;;;;3.15;2.00;;;;;;;4.15;84.48;99851.80;1680094;82;25943;-79
2020/12/25 05:06:18;;;;;;;4.50;2.12;;;;;;;4.10;84.44;99850.14;1706971;83;26329;-79
2020/12/25 05:08:50;;;;;;;2.17;1.87;;;;;;;4.08;84.48;99858.76;1721027;83;26140;-78
2020/12/25 05:11:21;;;;;;;3.75;2.42;;;;;;;4.04;84.55;99856.59;1703761;83;27550;-79
2020/12/25 05:13:56;;;;;;;2.95;1.98;;;;;;;4.02;84.50;99855.41;1838043;77;25691;-79
2020/12/25 05:16:24;;;;;;;2.95;2.08;;;;;;;3.91;84.69;99857.88;1747486;80;26074;-78
2020/12/25 05:18:52;;;;;;;5.15;2.00;;;;;;;3.89;84.64;99863.03;1715349;81;28563;-78
2020/12/25 05:21:22;;;;;;;2.67;1.98;;;;;;;3.90;84.69;99869.48;1733846;80;26127;-78
2020/12/25 05:23:50;;;;;;;2.25;2.05;;;;;;;3.90;84.74;99877.91;1762105;80;25805;-78
2020/12/25 05:26:19;;;;;;;2.30;2.10;;;;;;;3.90;84.63;99884.05;1708464;81;26284;-79
2020/12/25 05:28:49;;;;;;;4.62;2.55;;;;;;;3.91;84.59;99880.91;1740345;81;25839;-79
2020/12/25 05:31:17;;;;;;;;;;;;;;;3.91;84.62;99892.84;1736558;80;27395;-78
2020/12/25 05:33:50;;;;;;;2.72;1.25;;;;;;;3.91;84.67;99889.67;1740727;79;26595;-79
2020/12/25 05:36:18;;;;;;;3.27;1.92;;;;;;;3.88;84.71;99894.47;1739513;80;25933;-79
2020/12/25 05:38:50;;;;;;;2.30;1.45;;;;;;;3.84;84.58;99893.97;1722218;81;26500;-78
2020/12/25 05:41:19;;;;;;;5.72;2.00;;;;;;;3.83;84.64;99900.73;1759609;80;25870;-78
2020/12/25 05:43:49;;;;;;;2.52;1.60;;;;;;;3.83;84.57;99906.03;1712316;81;27618;-79
2020/12/25 05:46:28;;;;;;;3.77;2.15;;;;;;;3.90;84.48;99907.89;1879548;74;25677;-78
2020/12/25 05:48:58;;;;;;;2.85;1.85;;;;;;;3.87;84.54;99913.50;1763835;78;26493;-78
2020/12/25 05:51:25;;;;;;;1.85;1.40;;;;;;;3.89;84.50;99915.49;1772995;77;26880;-79
2020/12/25 05:53:54;;;;;;;2.17;1.95;;;;;;;3.89;84.43;99919.98;1783661;77;26423;-78
2020/12/25 05:56:21;;;;;;;4.03;1.98;;;;;;;3.91;84.44;99925.95;1814541;77;25853;-78
2020/12/25 05:58:50;;;;;;;3.12;1.67;;;;;;;3.94;84.43;99940.19;1790935;77;25636;-79
2020/12/25 06:01:18;;;;;;;3.33;1.70;;;;;;;3.97;84.42;99943.85;1786321;77;25429;-78
2020/12/25 06:03:46;;;;;;;2.35;1.50;;;;;;;3.98;84.17;99948.14;1784612;79;27966;-78
2020/12/25 06:06:14;;;;;;;1.32;1.20;;;;;;;3.99;84.21;99956.44;1821828;77;25986;-78
2020/12/25 06:08:56;;;;;;;6.12;1.05;;;;;;;4.00;84.02;99960.73;1755696;77;25412;-78
2020/12/25 06:11:30;;;;;;;2.72;1.60;;;;;;;3.98;83.96;99969.86;1781269;77;25938;-79
2020/12/25 06:13:58;;;;;;;3.35;1.30;;;;;;;3.98;83.72;99965.37;1777891;77;26040;-78
2020/12/25 06:16:28;;;;;;;2.67;1.40;;;;;;;4.00;83.76;99977.95;1799729;77;27469;-78
2020/12/25 06:19:13;;;;;;;2.58;1.25;;;;;;;4.01;83.28;99985.42;1759807;78;25897;-78
2020/12/25 06:21:57;;;;;;;2.12;1.30;;;;;;;3.98;82.90;99985.23;1784527;77;26471;-78
2020/12/25 06:24:34;;;;;;;4.60;1.30;;;;;;;3.97;82.53;99988.06;1787577;77;25764;-79
2020/12/25 06:27:05;;;;;;;3.85;1.00;;;;;;;3.96;82.36;99999.66;1790804;77;25581;-79
2020/12/25 06:29:33;;;;;;;1.32;0.93;;;;;;;3.93;82.25;100008.23;1796546;78;28612;-79
2020/12/25 06:32:02;;;;;;;3.55;1.20;;;;;;;3.90;81.24;100013.87;1772305;77;25981;-79
2020/12/25 06:34:45;;;;;;;0.93;0.70;;;;;;;3.88;81.09;100005.73;1788857;77;26590;-79
2020/12/25 06:37:18;;;;;;;1.75;0.70;;;;;;;3.83;81.21;100015.48;1755427;80;25897;-78
2020/12/25 06:39:54;;;;;;;1.00;0.72;;;;;;;3.84;81.01;100026.91;1701010;80;25785;-78
2020/12/25 06:42:32;;;;;;;1.90;0.70;;;;;;;3.84;80.80;100029.08;1745884;79;27640;-78
2020/12/25 06:45:06;;;;;;;1.52;0.62;;;;;;;3.85;80.75;100029.89;1739048;80;25583;-78
2020/12/25 06:47:39;;;;;;;2.95;1.05;;;;;;;3.84;80.58;100033.54;1768649;79;25908;-78
2020/12/25 06:50:12;;;;;;;3.50;1.17;;;;;;;3.86;80.80;100032.88;1763302;79;26185;-78
2020/12/25 06:52:55;;;;;;;2.60;1.05;;;;;;;3.86;80.57;100044.32;1726897;80;25379;-78
2020/12/25 06:55:24;;;;;;;1.77;0.90;;;;;;;3.83;80.42;100049.08;1767974;79;27327;-78
2020/12/25 06:57:55;;;;;;;1.05;0.75;;;;;;;3.83;80.57;100043.78;1768261;79;26105;-78
2020/12/25 07:00:24;;;;;;;;;;;;;;;3.86;80.60;100050.10;1709510;80;25900;-78
2020/12/25 07:02:51;;;;;;;1.02;0.78;;;;;;;3.87;80.51;100053.11;1722043;80;25981;-78
2020/12/25 07:05:19;;;;;;;1.55;0.82;;;;;;;3.88;80.57;100054.75;1713718;79;25842;-78
2020/12/25 07:07:46;;;;;;;1.02;0.70;;;;;;;3.90;80.55;100056.26;1699587;79;28495;-79
2020/12/25 07:10:15;;;;;;;2.55;1.30;;;;;;;3.90;80.48;100057.59;1718454;79;26535;-78
2020/12/25 07:12:43;;;;;;;1.72;0.93;;;;;;;3.94;80.73;100064.72;1759648;79;25416;-78
2020/12/25 07:15:10;;;;;;;2.60;0.90;;;;;;;3.96;80.62;100069.36;1717787;81;26477;-78
2020/12/25 07:17:37;;;;;;;4.78;1.05;;;;;;;3.91;80.54;100073.80;1717815;81;25818;-79
2020/12/25 07:20:09;;;;;;;2.37;1.37;;;;;;;3.90;80.57;100076.62;1664075;82;26746;-79
2020/12/25 07:22:38;;;;;;;1.82;0.82;;;;;;;3.90;80.68;100079.27;1731918;81;25434;-79
2020/12/25 07:25:10;;;;;;;1.90;1.05;;;;;;;3.86;80.54;100080.09;1742675;80;25817;-78
2020/12/25 07:27:37;;;;;;;2.92;1.05;;;;;;;3.86;80.75;100084.55;1716380;81;26157;-78
2020/12/25 07:30:06;;;;;;;3.37;0.90;;;;;;;3.87;80.86;100090.20;1731799;81;26108;-78
2020/12/25 07:32:33;;;;;;;3.27;1.25;;;;;;;3.86;80.91;100095.14;1740546;81;27538;-79
2020/12/25 07:35:05;;;;;;;3.30;1.15;;;;;;;3.85;81.10;100096.95;1739239;81;25942;-78
2020/12/25 07:37:35;;;;;;;3.22;1.15;;;;;;;3.82;80.85;100101.25;1720733;81;25864;-79
2020/12/25 07:40:06;;;;;;;2.30;0.95;;;;;;;3.79;80.78;100104.20;1700957;81;25822;-79
2020/12/25 07:42:39;;;;;;;4.92;1.22;;;;;;;3.75;80.81;100104.67;1719993;81;25935;-79
2020/12/25 07:45:07;;;;;;;2.72;0.90;;;;;;;3.73;80.86;100111.94;1734704;80;27304;-79
2020/12/25 07:47:41;;;;;;;4.87;1.22;;;;;;;3.71;81.23;100106.80;1729525;80;25872;-79
2020/12/25 07:50:10;;;;;;;3.72;1.30;;;;;;;3.74;81.31;100113.09;1722467;80;25980;-79
2020/12/25 07:52:38;;;;;;;3.02;1.40;;;;;;;3.73;80.88;100107.97;1748488;80;25868;-79
2020/12/25 07:55:08;;;;;;;3.17;1.20;;;;;;;3.73;81.24;100115.42;1745173;80;25773;-78
2020/12/25 07:57:42;;;;;;;4.95;1.75;;;;;;;3.75;81.29;100122.72;1719235;81;28534;-79
2020/12/25 08:00:11;;;;;;;4.03;2.00;;;;;;;3.73;81.12;100121.20;1767782;80;26175;-79
2020/12/25 08:02:38;;;;;;;2.75;2.05;;;;;;;3.70;81.36;100124.19;1743241;80;25932;-79
2020/12/25 08:05:10;;;;;;;4.00;2.10;;;;;;;3.68;80.94;100120.83;1705399;81;25816;-79
2020/12/25 08:07:43;;;;;;;3.25;1.80;;;;;;;3.63;80.97;100125.78;1712806;81;25822;-79
2020/12/25 08:10:16;;;;;;;4.15;2.17;;;;;;;3.61;81.02;100127.27;1728582;81;27541;-78
2020/12/25 08:12:55;;;;;;;4.47;2.10;;;;;;;3.56;81.09;100122.91;1728229;80;25847;-79
2020/12/25 08:15:25;;;;;;;3.55;2.00;;;;;;;3.57;81.29;100127.72;1703207;81;25893;-78
2020/12/25 08:18:00;;;;;;;5.05;2.40;;;;;;;3.59;81.22;100129.72;1725520;81;25934;-78
2020/12/25 08:20:28;;;;;;;4.25;2.10;;;;;;;3.58;81.46;100139.48;1727428;81;25941;-78
2020/12/25 08:23:02;;;;;;;4.17;2.05;;;;;;;3.57;81.44;100145.73;1744149;81;29083;-78
2020/12/25 08:25:32;;;;;;;4.35;2.00;;;;;;;3.52;81.33;100142.73;1727266;81;25832;-79
2020/12/25 08:28:00;;;;;;;4.40;2.47;;;;;;;3.54;81.67;100147.88;1754413;81;25927;-77
2020/12/25 08:30:28;;;;;;;5.60;2.55;;;;;;;3.59;81.49;100148.26;1719964;81;25811;-78
2020/12/25 08:32:59;;;;;;;4.20;2.80;;;;;;;3.62;81.69;100150.58;1753462;81;25917;-78
2020/12/25 08:35:31;;;;;;;3.52;2.17;;;;;;;3.66;81.52;100159.39;1768283;80;27415;-78
2020/12/25 08:38:02;;;;;;;3.75;2.37;;;;;;;3.68;81.33;100159.23;1741840;80;25862;-78
2020/12/25 08:40:39;;;;;;;4.72;3.30;;;;;;;3.63;81.06;100157.55;1730036;81;25411;-78
2020/12/25 08:43:18;;;;;;;6.62;2.92;;;;;;;3.59;81.21;100167.60;1740950;80;25894;-78
2020/12/25 08:45:58;;;;;;;4.43;2.73;;;;;;;3.62;81.20;100162.50;1765208;80;26120;-79
2020/12/25 08:48:27;;;;;;;3.98;2.40;;;;;;;3.62;81.31;100177.91;1727149;81;28502;-79
2020/12/25 08:51:10;;;;;;;5.20;3.58;;;;;;;3.63;80.81;100184.04;1702707;81;26329;-78
2020/12/25 08:53:40;;;;;;;4.47;2.80;;;;;;;3.57;81.12;100182.81;1728105;81;26530;-78
2020/12/25 08:56:28;;;;;;;4.03;2.87;;;;;;;3.60;81.32;100181.20;1700565;81;25889;-79
2020/12/25 08:59:06;;;;;;;3.35;2.67;;;;;;;3.62;81.32;100191.14;1706664;81;25747;-78
2020/12/25 09:01:40;;;;;;;4.20;2.87;;;;;;;3.61;80.97;100180.72;1710886;81;27608;-78
2020/12/25 09:04:16;;;;;;;3.47;2.33;;;;;;;3.59;80.97;100184.01;1736788;79;25819;-78
2020/12/25 09:06:44;;;;;;;5.65;2.80;;;;;;;3.61;80.78;100189.98;1733481;81;25900;-78
2020/12/25 09:09:11;;;;;;;3.12;2.40;;;;;;;3.61;81.15;100193.95;1739525;79;25904;-78
2020/12/25 09:11:39;;;;;;;3.67;2.60;;;;;;;3.65;80.94;100193.50;1762305;79;26113;-78
2020/12/25 09:14:06;;;;;;;3.90;2.62;;;;;;;3.64;80.92;100196.28;1740183;79;28439;-78
2020/12/25 09:16:34;;;;;;;3.95;2.52;;;;;;;3.65;80.87;100200.13;1742625;79;25819;-78
2020/12/25 09:19:02;;;;;;;4.83;2.58;;;;;;;3.67;80.85;100203.94;1728359;79;26301;-77
2020/12/25 09:21:29;;;;;;;5.25;2.75;;;;;;;3.72;80.92;100205.12;1725371;81;26360;-78
2020/12/25 09:23:57;;;;;;;4.03;2.50;;;;;;;3.73;80.88;100210.78;1722368;79;25860;-78
2020/12/25 09:26:24;;;;;;;7.60;3.10;;;;;;;3.77;80.52;100212.14;1732361;80;27527;-78
2020/12/25 09:28:52;;;;;;;5.35;3.27;;;;;;;3.75;80.48;100212.78;1713716;81;25753;-78
2020/12/25 09:31:20;;;;;;;5.70;3.33;;;;;;;3.78;80.74;100215.62;1722939;79;26275;-78
2020/12/25 09:33:47;;;;;;;3.37;2.55;;;;;;;3.79;80.79;100213.30;1714593;81;25674;-78
2020/12/25 09:36:15;;;;;;;4.78;2.72;;;;;;;3.83;80.81;100218.14;1747979;80;25825;-78
2020/12/25 09:38:43;;;;;;;4.87;2.60;;;;;;;3.84;80.58;100219.83;1721205;79;27509;-78
2020/12/25 09:41:14;;;;;;;4.00;2.40;;;;;;;3.83;80.49;100214.66;1707707;81;25824;-78
2020/12/25 09:43:42;;;;;;;4.60;2.47;;;;;;;3.84;80.71;100214.52;1707325;82;26291;-78
2020/12/25 09:46:10;;;;;;;4.37;2.52;;;;;;;3.84;80.47;100218.98;1752180;80;26006;-79
2020/12/25 09:48:38;;;;;;;2.62;1.92;;;;;;;3.86;80.77;100222.31;1716591;81;25994;-78
2020/12/25 09:51:06;;;;;;;3.98;2.42;;;;;;;3.84;79.57;100221.63;1696643;81;27794;-78
2020/12/25 09:53:36;;;;;;;4.00;2.45;;;;;;;3.79;80.05;100227.88;1712151;81;26084;-78
2020/12/25 09:56:03;;;;;;;3.50;2.35;;;;;;;3.78;80.14;100225.73;1744631;80;25898;-78
2020/12/25 09:58:33;;;;;;;3.20;2.60;;;;;;;3.76;80.23;100229.00;1699226;82;26238;-78
2020/12/25 10:01:01;;;;;;;5.58;2.52;;;;;;;3.76;79.95;100221.05;1695565;82;26399;-78
2020/12/25 10:03:28;;;;;;;4.28;2.90;;;;;;;3.79;80.15;100229.19;1687164;81;28391;-78
2020/12/25 10:05:57;;;;;;;6.33;1.95;;;;;;;3.77;79.92;100229.36;1708763;82;26136;-78
2020/12/25 10:08:25;;;;;;;3.58;2.22;;;;;;;3.76;80.04;100225.55;1707992;81;25785;-80
2020/12/25 10:10:52;;;;;;;4.40;2.60;;;;;;;3.77;80.26;100237.30;1692352;82;26482;-78
2020/12/25 10:13:23;;;;;;;5.37;2.60;;;;;;;3.78;80.11;100236.81;1683225;82;25882;-78
2020/12/25 10:15:52;;;;;;;4.87;2.40;;;;;;;3.79;80.32;100231.84;1710788;81;26929;-78
2020/12/25 10:18:23;;;;;;;4.42;2.62;;;;;;;3.78;80.07;100240.31;1675533;81;26376;-78
2020/12/25 10:20:52;;;;;;;6.33;3.00;;;;;;;3.78;80.13;100238.14;1689867;81;25889;-78
2020/12/25 10:23:20;;;;;;;3.27;2.42;;;;;;;3.76;80.10;100238.27;1686041;82;26532;-77
2020/12/25 10:25:47;;;;;;;5.30;3.05;;;;;;;3.76;80.26;100236.14;1713753;82;26129;-78
2020/12/25 10:28:16;;;;;;;4.55;2.60;;;;;;;3.76;80.11;100231.65;1667775;82;27286;-78
2020/12/25 10:30:43;;;;;;;6.22;3.22;;;;;;;3.76;80.12;100238.27;1688310;81;25992;-77
2020/12/25 10:33:11;;;;;;;6.30;3.10;;;;;;;3.74;79.94;100235.46;1676976;82;26463;-78
2020/12/25 10:35:39;;;;;;;5.40;2.77;;;;;;;3.72;80.00;100240.08;1724838;82;25603;-78
2020/12/25 10:38:07;;;;;;;3.47;2.85;;;;;;;3.76;80.12;100241.44;1712993;82;26172;-78
2020/12/25 10:40:36;;;;;;;5.25;2.98;;;;;;;3.77;80.11;100243.09;1724644;81;28488;-78
2020/12/25 10:43:03;;;;;;;4.28;2.55;;;;;;;3.80;79.91;100244.96;1708367;81;26478;-78
2020/12/25 10:45:31;;;;;;;5.03;2.75;;;;;;;3.80;80.00;100243.63;1713613;81;26339;-78
2020/12/25 10:47:58;;;;;;;8.28;2.80;;;;;;;3.81;79.99;100239.14;1723212;81;25744;-77
2020/12/25 10:50:26;;;;;;;7.92;2.90;;;;;;;3.84;79.88;100249.45;1698083;79;25759;-78
2020/12/25 10:52:55;;;;;;;6.37;2.65;;;;;;;3.80;79.72;100247.61;1701925;81;28771;-81
2020/12/25 10:55:22;;;;;;;4.12;2.20;;;;;;;3.81;79.82;100247.93;1745743;80;25842;-80
2020/12/25 10:57:50;;;;;;;3.50;2.25;;;;;;;3.81;79.96;100248.41;1697570;81;26350;-77
2020/12/25 11:00:17;;;;;;;4.70;2.47;;;;;;;3.79;79.65;100257.01;1704287;81;25919;-77
2020/12/25 11:02:47;;;;;;;5.12;2.87;;;;;;;3.77;79.73;100251.88;1723754;81;26176;-78
2020/12/25 11:05:16;;;;;;;4.45;2.52;;;;;;;3.76;79.81;100259.46;1750274;80;27618;-78
2020/12/25 11:07:45;;;;;;;4.53;2.62;;;;;;;3.75;79.77;100256.97;1694757;81;25833;-78
2020/12/25 11:10:12;;;;;;;6.10;2.62;;;;;;;3.75;79.87;100252.52;1696649;81;25802;-78
2020/12/25 11:12:42;;;;;;;4.25;2.30;;;;;;;3.72;79.92;100250.16;1705542;81;25906;-78
2020/12/25 11:15:09;;;;;;;7.05;3.80;;;;;;;3.75;80.18;100245.05;1710307;81;26859;-79
2020/12/25 11:17:40;;;;;;;7.37;3.85;;;;;;;3.81;80.36;100243.95;1729322;80;28369;-78
2020/12/25 11:20:07;;;;;;;5.80;3.02;;;;;;;3.89;80.46;100247.19;1761772;80;26152;-78
2020/12/25 11:22:36;;;;;;;5.65;2.70;;;;;;;3.93;80.23;100253.33;1715548;81;26831;-78
2020/12/25 11:25:03;;;;;;;5.00;2.72;;;;;;;3.96;79.96;100254.03;1735345;80;25849;-78
2020/12/25 11:27:32;;;;;;;5.40;2.50;;;;;;;3.93;79.66;100249.35;1744466;80;25492;-79
2020/12/25 11:30:00;;;;;;;4.30;2.67;;;;;;;3.91;79.88;100256.63;1728587;80;27412;-78
2020/12/25 11:32:28;;;;;;;4.40;2.90;;;;;;;3.89;79.77;100249.31;1694350;80;25824;-78
2020/12/25 11:34:58;;;;;;;4.00;2.50;;;;;;;3.88;80.06;100255.62;1722737;80;25867;-78
2020/12/25 11:37:29;;;;;;;4.22;2.52;;;;;;;3.94;80.13;100250.19;1709387;81;25889;-78
2020/12/25 11:39:56;;;;;;;5.33;3.10;;;;;;;3.99;80.18;100256.36;1704760;80;25830;-79
2020/12/25 11:42:24;;;;;;;4.62;3.05;;;;;;;4.02;80.23;100259.53;1702210;80;27528;-79
2020/12/25 11:44:52;;;;;;;4.08;2.27;;;;;;;4.07;80.05;100257.74;1738386;81;26015;-79
2020/12/25 11:47:20;;;;;;;6.33;2.90;;;;;;;4.05;79.49;100261.05;1724951;81;25622;-79